Time;durP1;ratioP1;P1;durP2;ratioP2;P2;SDS_P1;SDS_P2;PMS_P1;PMS_P2;Temp;Humidity;BMP_temperature;BMP_pressure;BME280_temperature;BME280_humidity;BME280_pressure;Samples;Min_cycle;Max_cycle;Signal;HPM_P1;HPM_P2
2022/10/26 00:01:09;;;;;;;28.57;16.47;;;10.00;99.90;;;;;;5010938;28;20270;-85
2022/10/26 00:03:38;;;;;;;27.97;16.77;;;10.00;99.90;;;;;;5014270;28;20213;-85
2022/10/26 00:06:10;;;;;;;30.27;16.83;;;9.90;99.90;;;;;;5010829;28;20209;-86
2022/10/26 00:08:38;;;;;;;29.00;16.80;;;9.90;99.90;;;;;;5041045;28;20240;-85
2022/10/26 00:11:07;;;;;;;30.03;17.03;;;9.90;99.90;;;;;;5041151;28;20224;-84
2022/10/26 00:13:37;;;;;;;35.03;18.33;;;9.90;99.90;;;;;;5034363;28;20242;-85
2022/10/26 00:16:13;;;;;;;33.50;18.77;;;9.90;99.90;;;;;;5025175;28;20370;-86
2022/10/26 00:18:41;;;;;;;29.97;17.07;;;9.90;99.90;;;;;;5013410;28;20273;-85
2022/10/26 00:21:10;;;;;;;27.57;17.30;;;9.90;99.90;;;;;;5031127;28;20226;-84
2022/10/26 00:23:37;;;;;;;28.00;17.53;;;9.80;99.90;;;;;;5016482;28;20271;-87
2022/10/26 00:26:06;;;;;;;28.60;16.93;;;9.90;99.90;;;;;;5021978;28;20315;-84
2022/10/26 00:28:33;;;;;;;39.93;21.97;;;9.80;99.90;;;;;;5023199;28;20223;-85
2022/10/26 00:31:02;;;;;;;41.97;21.40;;;9.80;99.90;;;;;;5024651;28;20301;-85
2022/10/26 00:33:29;;;;;;;39.43;22.27;;;9.80;99.90;;;;;;5019658;28;20712;-83
2022/10/26 00:35:56;;;;;;;35.97;20.27;;;9.90;99.90;;;;;;5022024;28;20364;-85
2022/10/26 00:38:23;;;;;;;31.63;19.20;;;9.90;99.90;;;;;;4999842;28;20340;-84
2022/10/26 00:40:50;;;;;;;37.57;20.43;;;9.80;99.90;;;;;;5025082;28;20312;-84
2022/10/26 00:43:20;;;;;;;35.60;19.57;;;9.90;99.90;;;;;;5020731;28;20210;-86
2022/10/26 00:45:52;;;;;;;38.93;20.50;;;9.90;99.90;;;;;;5024232;28;20216;-85
2022/10/26 00:48:26;;;;;;;33.23;19.13;;;9.90;99.90;;;;;;5021697;28;20284;-85
2022/10/26 00:50:55;;;;;;;35.23;19.50;;;9.90;99.90;;;;;;5019414;28;20307;-85
2022/10/26 00:53:22;;;;;;;34.57;20.70;;;9.80;99.90;;;;;;5020669;28;20238;-84
2022/10/26 00:55:51;;;;;;;41.50;22.43;;;10.30;99.90;;;;;;5023372;28;20668;-87
2022/10/26 00:58:20;;;;;;;39.57;21.57;;;10.00;99.90;;;;;;5021090;28;20817;-86
2022/10/26 01:00:48;;;;;;;35.43;21.20;;;10.00;99.90;;;;;;5026309;28;20300;-86
2022/10/26 01:03:17;;;;;;;30.90;19.43;;;10.10;99.90;;;;;;5022782;28;20215;-85
2022/10/26 01:05:46;;;;;;;32.57;18.50;;;10.10;99.90;;;;;;5008841;28;20328;-85
2022/10/26 01:08:14;;;;;;;37.30;20.40;;;10.10;99.90;;;;;;5022249;28;20703;-86
2022/10/26 01:10:41;;;;;;;29.27;18.80;;;10.10;99.90;;;;;;5028319;28;20968;-85
2022/10/26 01:13:09;;;;;;;37.37;20.93;;;10.10;99.90;;;;;;5023217;28;20213;-85
2022/10/26 01:15:48;;;;;;;29.33;18.90;;;10.20;99.90;;;;;;5020675;28;20220;-85
2022/10/26 01:18:32;;;;;;;31.63;21.07;;;10.20;99.90;;;;;;5014847;28;20582;-86
2022/10/26 01:21:13;;;;;;;37.13;21.63;;;10.20;99.90;;;;;;5020178;28;20226;-85
2022/10/26 01:24:17;;;;;;;40.43;21.53;;;10.20;99.90;;;;;;5029473;28;20235;-86
2022/10/26 01:27:17;;;;;;;36.23;19.50;;;10.20;99.90;;;;;;5038892;28;20212;-85
2022/10/26 01:30:12;;;;;;;40.40;23.47;;;10.20;99.90;;;;;;5042053;28;20258;-84
2022/10/26 01:32:45;;;;;;;40.20;21.70;;;10.20;99.90;;;;;;5042120;28;20236;-86
2022/10/26 01:35:33;;;;;;;36.77;21.87;;;10.20;99.90;;;;;;5039186;28;20284;-86
2022/10/26 01:38:10;;;;;;;35.00;20.43;;;10.30;99.90;;;;;;5026296;28;20252;-84
2022/10/26 01:40:50;;;;;;;41.00;22.40;;;10.30;99.90;;;;;;5029602;28;20258;-85
2022/10/26 01:43:18;;;;;;;41.73;21.50;;;10.30;99.90;;;;;;5045843;28;20202;-85
2022/10/26 01:45:47;;;;;;;38.67;22.27;;;10.30;99.90;;;;;;5046142;28;20216;-84
2022/10/26 01:48:19;;;;;;;43.33;22.87;;;10.30;99.90;;;;;;5017194;28;20257;-86
2022/10/26 01:50:52;;;;;;;38.63;22.60;;;10.30;99.90;;;;;;5022655;28;20228;-85
2022/10/26 01:53:19;;;;;;;38.97;22.60;;;10.30;99.90;;;;;;5009620;28;20721;-86
2022/10/26 01:55:50;;;;;;;45.40;21.30;;;10.40;99.90;;;;;;5030295;28;20225;-85
2022/10/26 01:58:37;;;;;;;36.80;22.87;;;10.40;99.90;;;;;;5021615;28;20656;-85
2022/10/26 02:01:22;;;;;;;41.47;22.97;;;10.40;99.90;;;;;;5025545;28;20194;-85
2022/10/26 02:03:55;;;;;;;38.03;22.40;;;10.40;99.90;;;;;;5025403;28;20322;-85
2022/10/26 02:06:52;;;;;;;37.60;22.40;;;10.50;99.90;;;;;;5008356;28;20227;-84
2022/10/26 02:09:33;;;;;;;42.80;21.73;;;10.50;99.90;;;;;;5028036;28;20228;-85
2022/10/26 02:12:05;;;;;;;39.60;22.20;;;10.50;99.90;;;;;;5034090;28;20269;-85
2022/10/26 02:14:32;;;;;;;42.07;22.33;;;10.50;99.90;;;;;;5044128;28;20227;-85
2022/10/26 02:17:27;;;;;;;35.33;22.03;;;10.40;99.90;;;;;;5029910;28;20272;-85
2022/10/26 02:20:08;;;;;;;37.67;21.23;;;10.50;99.90;;;;;;5022534;28;20229;-85
2022/10/26 02:22:44;;;;;;;37.23;21.77;;;10.60;99.90;;;;;;5036986;28;20239;-84
2022/10/26 02:25:20;;;;;;;38.03;21.90;;;10.60;99.90;;;;;;5025291;28;20721;-86
2022/10/26 02:27:56;;;;;;;35.30;19.87;;;10.70;99.90;;;;;;5010445;28;20685;-85
2022/10/26 02:30:24;;;;;;;34.13;19.40;;;10.80;99.90;;;;;;5021290;28;20230;-85
2022/10/26 02:32:54;;;;;;;38.60;19.87;;;10.70;99.90;;;;;;5020571;28;21052;-85
2022/10/26 02:35:26;;;;;;;33.43;18.07;;;11.00;99.90;;;;;;5024007;28;20314;-86
2022/10/26 02:37:56;;;;;;;30.67;17.70;;;11.10;99.90;;;;;;5026507;28;20210;-85
2022/10/26 02:40:26;;;;;;;34.30;19.63;;;10.90;99.90;;;;;;5003996;28;20210;-85
2022/10/26 02:42:56;;;;;;;35.90;19.27;;;10.70;99.90;;;;;;5010099;28;20213;-86
2022/10/26 02:45:29;;;;;;;43.87;20.73;;;10.80;99.90;;;;;;5011084;28;20548;-85
2022/10/26 02:47:56;;;;;;;34.77;19.97;;;10.70;99.90;;;;;;5026918;28;20278;-85
2022/10/26 02:50:46;;;;;;;39.10;22.20;;;10.80;99.90;;;;;;5026121;28;20232;-86
2022/10/26 02:53:23;;;;;;;33.63;20.30;;;10.70;99.90;;;;;;5023477;28;20206;-85
2022/10/26 02:55:51;;;;;;;37.23;19.57;;;10.30;99.90;;;;;;5016640;28;20207;-85
2022/10/26 02:58:28;;;;;;;37.47;19.27;;;10.90;99.90;;;;;;5022547;28;20214;-87
2022/10/26 03:00:57;;;;;;;31.50;19.80;;;12.20;99.90;;;;;;5026979;28;20202;-86
2022/10/26 03:03:24;;;;;;;32.00;19.70;;;11.00;99.90;;;;;;5024542;28;20303;-84
2022/10/26 03:05:51;;;;;;;37.33;19.47;;;10.90;99.90;;;;;;5021958;28;20318;-83
2022/10/26 03:08:18;;;;;;;35.03;19.00;;;11.00;99.90;;;;;;5025422;28;20852;-84
2022/10/26 03:10:45;;;;;;;34.10;18.50;;;11.00;99.90;;;;;;5009233;28;20214;-86
2022/10/26 03:13:13;;;;;;;32.43;19.97;;;11.00;99.90;;;;;;5022878;28;20305;-86
2022/10/26 03:15:40;;;;;;;38.90;19.63;;;11.00;99.90;;;;;;5022194;28;20225;-83
2022/10/26 03:18:07;;;;;;;34.17;19.20;;;11.10;99.90;;;;;;5023869;28;20233;-84
2022/10/26 03:20:33;;;;;;;34.77;18.93;;;11.10;99.90;;;;;;5021383;28;20230;-85
2022/10/26 03:23:04;;;;;;;37.70;18.43;;;11.10;99.90;;;;;;5016035;28;20213;-86
2022/10/26 03:25:33;;;;;;;35.93;17.47;;;11.20;99.90;;;;;;5016436;28;21131;-85
2022/10/26 03:28:02;;;;;;;36.00;18.73;;;11.20;99.90;;;;;;5022885;28;20210;-83
2022/10/26 03:30:30;;;;;;;33.27;19.23;;;11.30;99.90;;;;;;5040589;28;20287;-84
2022/10/26 03:32:57;;;;;;;30.43;18.57;;;11.20;99.90;;;;;;5036817;28;20233;-84
2022/10/26 03:35:25;;;;;;;32.43;16.90;;;11.20;99.90;;;;;;5023847;28;20257;-85
2022/10/26 03:37:51;;;;;;;31.60;17.97;;;11.30;99.90;;;;;;5022018;28;20221;-85
2022/10/26 03:40:19;;;;;;;34.00;17.63;;;11.20;99.90;;;;;;5013329;28;20605;-84
2022/10/26 03:42:48;;;;;;;32.87;17.87;;;11.30;99.90;;;;;;5024902;28;21030;-85
2022/10/26 03:45:16;;;;;;;30.97;17.73;;;11.40;99.90;;;;;;5010200;28;20206;-85
2022/10/26 03:47:49;;;;;;;33.57;17.80;;;11.40;99.90;;;;;;5021831;28;20684;-85
2022/10/26 03:50:19;;;;;;;30.00;16.93;;;11.40;99.90;;;;;;5020893;28;20230;-85
2022/10/26 03:52:47;;;;;;;33.07;17.13;;;11.40;99.90;;;;;;5025040;28;20632;-85
2022/10/26 03:55:14;;;;;;;36.97;18.10;;;11.40;99.90;;;;;;5028763;28;20210;-86
2022/10/26 03:57:43;;;;;;;34.60;17.53;;;11.50;99.90;;;;;;5020589;28;20319;-85
2022/10/26 04:00:14;;;;;;;31.03;17.20;;;11.70;99.90;;;;;;5027189;28;20220;-86
2022/10/26 04:02:52;;;;;;;28.60;17.20;;;11.50;99.90;;;;;;5007743;28;20245;-86
2022/10/26 04:05:19;;;;;;;29.93;17.00;;;11.50;99.90;;;;;;5020873;28;20340;-85
2022/10/26 04:07:52;;;;;;;26.90;16.83;;;11.50;99.90;;;;;;5019145;28;20253;-85
2022/10/26 04:10:20;;;;;;;28.33;16.10;;;11.60;99.90;;;;;;5009632;28;20233;-87
2022/10/26 04:12:47;;;;;;;28.87;16.63;;;11.60;99.90;;;;;;5016955;28;20283;-84
2022/10/26 04:15:17;;;;;;;33.07;17.40;;;11.60;99.90;;;;;;5031088;28;20293;-84
2022/10/26 04:17:43;;;;;;;28.47;17.60;;;11.60;99.90;;;;;;5025767;28;20266;-85
2022/10/26 04:20:12;;;;;;;34.40;17.20;;;11.60;99.90;;;;;;5029570;28;20257;-85
2022/10/26 04:22:40;;;;;;;25.33;17.03;;;12.00;99.90;;;;;;5023615;28;20237;-85
2022/10/26 04:25:07;;;;;;;28.63;16.30;;;11.60;99.90;;;;;;5014192;28;20642;-86
2022/10/26 04:27:36;;;;;;;29.93;17.53;;;11.70;99.90;;;;;;5022514;28;20215;-85
2022/10/26 04:30:07;;;;;;;29.40;16.03;;;11.70;99.90;;;;;;5022994;28;20644;-85
2022/10/26 04:32:34;;;;;;;32.57;16.03;;;11.70;99.90;;;;;;5008139;28;20501;-87
2022/10/26 04:35:02;;;;;;;25.47;15.30;;;11.70;99.90;;;;;;5023608;28;20214;-85
2022/10/26 04:37:28;;;;;;;25.77;15.70;;;11.70;99.90;;;;;;5019325;28;20294;-85
2022/10/26 04:39:55;;;;;;;26.17;15.43;;;11.70;99.90;;;;;;5026360;28;20214;-84
2022/10/26 04:42:22;;;;;;;27.90;16.43;;;11.70;99.90;;;;;;5013721;28;20277;-84
2022/10/26 04:44:52;;;;;;;26.83;15.73;;;11.70;99.90;;;;;;5025885;28;20210;-85
2022/10/26 04:47:18;;;;;;;27.90;15.97;;;11.80;99.90;;;;;;5028471;28;20221;-84
2022/10/26 04:49:45;;;;;;;26.43;15.03;;;11.80;99.90;;;;;;5013800;28;20256;-85
2022/10/26 04:52:12;;;;;;;24.30;15.23;;;11.80;99.90;;;;;;5024124;28;20223;-84
2022/10/26 04:54:39;;;;;;;26.27;14.70;;;11.80;99.90;;;;;;5019958;28;20304;-84
2022/10/26 04:57:06;;;;;;;24.03;15.70;;;11.80;99.90;;;;;;5026995;28;20212;-84
2022/10/26 04:59:32;;;;;;;26.17;15.20;;;11.80;99.90;;;;;;5025546;28;20229;-83
2022/10/26 05:01:59;;;;;;;23.93;14.73;;;11.80;99.90;;;;;;5029299;28;20268;-85
2022/10/26 05:04:27;;;;;;;27.80;14.43;;;11.80;99.90;;;;;;5025103;28;20248;-84
2022/10/26 05:06:54;;;;;;;26.57;14.27;;;11.80;99.90;;;;;;5009560;28;20248;-84
2022/10/26 05:09:21;;;;;;;21.67;13.87;;;11.80;99.90;;;;;;5022592;28;20222;-84
2022/10/26 05:11:48;;;;;;;25.80;13.93;;;11.80;99.90;;;;;;5026997;28;20288;-84
2022/10/26 05:14:14;;;;;;;25.00;14.03;;;11.80;99.90;;;;;;5020878;28;20383;-84
2022/10/26 05:16:43;;;;;;;23.53;14.10;;;11.80;99.90;;;;;;5022330;28;20764;-84
2022/10/26 05:19:10;;;;;;;24.03;13.90;;;11.80;99.90;;;;;;5025017;28;20275;-86
2022/10/26 05:21:37;;;;;;;23.20;13.43;;;11.80;99.90;;;;;;5024153;28;20806;-84
2022/10/26 05:24:04;;;;;;;24.97;13.63;;;11.80;99.90;;;;;;5022561;28;20218;-85
2022/10/26 05:26:37;;;;;;;25.53;13.43;;;11.70;99.90;;;;;;5017233;28;20296;-85
2022/10/26 05:29:06;;;;;;;26.70;13.90;;;11.70;99.90;;;;;;5024814;28;20225;-86
2022/10/26 05:31:33;;;;;;;27.70;13.87;;;11.10;99.90;;;;;;5020710;28;20212;-85
2022/10/26 05:34:00;;;;;;;27.97;14.17;;;11.60;99.90;;;;;;5008388;28;20222;-84
2022/10/26 05:36:27;;;;;;;25.00;13.57;;;11.60;99.90;;;;;;5022538;28;20754;-83
2022/10/26 05:38:58;;;;;;;24.97;13.73;;;11.60;99.90;;;;;;5025494;28;20198;-84
2022/10/26 05:41:25;;;;;;;21.53;13.67;;;11.50;99.90;;;;;;5024988;28;20606;-84
2022/10/26 05:43:52;;;;;;;22.13;12.57;;;11.40;99.90;;;;;;5017380;28;20314;-84
2022/10/26 05:46:19;;;;;;;23.80;14.37;;;11.40;99.90;;;;;;5008795;28;20199;-85
2022/10/26 05:48:46;;;;;;;23.57;13.57;;;11.40;99.90;;;;;;5024538;28;20934;-86
2022/10/26 05:51:15;;;;;;;24.70;13.03;;;11.30;99.90;;;;;;5024923;28;20570;-83
2022/10/26 05:53:43;;;;;;;26.20;13.90;;;11.30;99.90;;;;;;5023465;28;20252;-82
2022/10/26 05:56:20;;;;;;;28.23;14.10;;;11.30;99.90;;;;;;5024034;28;20309;-84
2022/10/26 05:58:47;;;;;;;24.73;14.33;;;11.30;99.90;;;;;;5010092;28;20201;-82
2022/10/26 06:01:27;;;;;;;27.83;14.40;;;11.30;99.90;;;;;;5026956;28;20202;-84
2022/10/26 06:04:06;;;;;;;23.57;13.03;;;11.30;99.90;;;;;;5024076;28;20233;-82
2022/10/26 06:06:43;;;;;;;26.33;13.60;;;11.30;99.90;;;;;;5023731;28;20200;-83
2022/10/26 06:09:12;;;;;;;25.20;14.33;;;11.30;99.90;;;;;;5011049;28;20229;-83
2022/10/26 06:11:39;;;;;;;26.47;13.83;;;11.30;99.90;;;;;;5024271;28;20214;-83
2022/10/26 06:14:08;;;;;;;30.67;13.30;;;11.30;99.90;;;;;;5027181;28;20213;-83
2022/10/26 06:16:54;;;;;;;21.73;13.60;;;11.40;99.90;;;;;;5019619;28;20191;-81
2022/10/26 06:20:07;;;;;;;25.83;14.23;;;11.40;99.90;;;;;;5025684;28;20218;-82
2022/10/26 06:22:50;;;;;;;24.00;13.07;;;11.40;99.90;;;;;;5028369;28;20288;-83
2022/10/26 06:25:27;;;;;;;20.80;12.30;;;11.50;99.90;;;;;;5009241;28;20308;-84
2022/10/26 06:28:04;;;;;;;22.10;11.67;;;11.30;99.90;;;;;;5009694;28;20351;-82
2022/10/26 06:30:31;;;;;;;29.27;13.27;;;11.30;99.90;;;;;;5004405;28;20245;-81
2022/10/26 06:33:00;;;;;;;21.90;12.20;;;11.70;99.90;;;;;;5027570;28;20202;-84
2022/10/26 06:36:03;;;;;;;22.27;12.80;;;11.20;99.90;;;;;;5019940;28;20748;-82
2022/10/26 06:38:33;;;;;;;23.73;12.93;;;11.50;99.90;;;;;;5023066;28;20200;-82
2022/10/26 06:41:01;;;;;;;21.23;12.10;;;11.40;99.90;;;;;;5026973;28;20693;-83
2022/10/26 06:43:32;;;;;;;22.43;13.43;;;11.20;99.90;;;;;;5024834;28;20209;-83
2022/10/26 06:46:05;;;;;;;25.43;13.40;;;11.20;99.90;;;;;;5027801;28;20264;-83
2022/10/26 06:48:42;;;;;;;23.10;13.93;;;11.20;99.90;;;;;;5020907;28;20285;-83
2022/10/26 06:51:14;;;;;;;23.50;13.77;;;11.20;99.90;;;;;;5024343;28;20225;-81
2022/10/26 06:53:59;;;;;;;25.40;13.70;;;11.20;99.90;;;;;;5021458;28;20206;-83
2022/10/26 06:56:26;;;;;;;24.50;14.27;;;11.20;99.90;;;;;;5022114;28;20590;-83
2022/10/26 06:58:55;;;;;;;23.00;12.30;;;11.20;99.90;;;;;;5021195;28;20241;-82
2022/10/26 07:01:22;;;;;;;32.10;14.20;;;11.30;99.90;;;;;;5021581;28;20229;-82
2022/10/26 07:03:49;;;;;;;24.00;13.47;;;11.30;99.90;;;;;;5021094;28;20902;-83
2022/10/26 07:06:16;;;;;;;23.77;13.80;;;11.30;99.90;;;;;;5022684;28;20934;-82
2022/10/26 07:08:42;;;;;;;27.30;13.70;;;11.40;99.90;;;;;;5029246;28;20202;-83
2022/10/26 07:11:09;;;;;;;22.93;12.57;;;11.40;99.90;;;;;;5022928;28;20222;-83
2022/10/26 07:13:36;;;;;;;19.87;12.77;;;11.50;99.90;;;;;;5025338;28;20568;-82
2022/10/26 07:16:03;;;;;;;22.27;12.70;;;11.50;99.90;;;;;;5001875;28;20559;-81
2022/10/26 07:18:30;;;;;;;23.67;12.90;;;11.60;99.90;;;;;;5025944;28;20782;-82
2022/10/26 07:20:58;;;;;;;20.97;12.27;;;11.70;99.90;;;;;;5027995;28;20244;-82
2022/10/26 07:23:24;;;;;;;21.47;12.50;;;11.80;99.90;;;;;;5037254;28;20265;-81
2022/10/26 07:25:51;;;;;;;21.93;12.17;;;11.80;99.90;;;;;;5045459;28;20224;-82
2022/10/26 07:28:18;;;;;;;22.33;12.47;;;11.80;99.90;;;;;;5044290;28;20202;-82
2022/10/26 07:30:45;;;;;;;18.80;11.00;;;11.90;99.90;;;;;;5041048;28;20236;-81
2022/10/26 07:33:13;;;;;;;20.90;11.33;;;11.90;99.90;;;;;;5005997;28;20236;-82
2022/10/26 07:35:40;;;;;;;21.03;11.07;;;12.00;99.90;;;;;;5029470;28;20222;-82
2022/10/26 07:38:08;;;;;;;23.37;10.60;;;12.00;99.90;;;;;;5025999;28;20238;-81
2022/10/26 07:40:36;;;;;;;20.80;10.37;;;12.10;99.90;;;;;;5023263;28;20308;-82
2022/10/26 07:43:03;;;;;;;19.33;11.63;;;12.00;99.90;;;;;;5023653;28;20214;-83
2022/10/26 07:45:30;;;;;;;18.93;10.57;;;12.10;99.90;;;;;;5027181;28;20297;-84
2022/10/26 07:47:57;;;;;;;21.00;11.40;;;12.30;99.90;;;;;;5027431;28;20245;-84
2022/10/26 07:50:24;;;;;;;17.60;10.43;;;13.00;99.90;;;;;;5022475;28;20701;-82
2022/10/26 07:52:51;;;;;;;21.17;11.03;;;12.30;99.90;;;;;;5010261;28;20301;-84
2022/10/26 07:55:21;;;;;;;15.40;9.80;;;12.50;99.90;;;;;;5025180;28;20205;-84
2022/10/26 07:57:48;;;;;;;19.17;10.07;;;12.10;99.90;;;;;;5006721;28;20599;-83
2022/10/26 08:00:21;;;;;;;20.20;10.40;;;13.60;99.90;;;;;;5028161;28;20210;-82
2022/10/26 08:02:48;;;;;;;21.30;11.33;;;12.40;99.90;;;;;;5022625;28;20663;-83
2022/10/26 08:05:14;;;;;;;19.10;10.50;;;12.30;99.90;;;;;;5027282;28;20280;-82
2022/10/26 08:07:42;;;;;;;21.93;10.73;;;12.50;99.90;;;;;;5027823;28;20228;-84
2022/10/26 08:10:13;;;;;;;17.47;10.07;;;13.10;99.90;;;;;;5025002;28;20238;-84
2022/10/26 08:12:42;;;;;;;14.50;9.97;;;12.60;99.90;;;;;;5005867;28;20625;-84
2022/10/26 08:15:09;;;;;;;13.83;9.03;;;12.80;99.90;;;;;;5022097;28;20301;-82
2022/10/26 08:17:38;;;;;;;15.50;8.97;;;12.70;99.90;;;;;;5020434;28;20253;-83
2022/10/26 08:20:05;;;;;;;16.90;9.53;;;12.80;99.90;;;;;;5020700;28;20308;-83
2022/10/26 08:22:32;;;;;;;15.73;9.07;;;12.80;99.90;;;;;;5021262;28;20199;-82
2022/10/26 08:24:59;;;;;;;15.53;9.20;;;12.60;99.90;;;;;;5019725;28;20755;-82
2022/10/26 08:27:26;;;;;;;16.63;8.67;;;12.90;99.90;;;;;;5018633;28;20229;-83
2022/10/26 08:29:53;;;;;;;16.57;9.60;;;12.90;99.90;;;;;;5018342;28;20865;-83
2022/10/26 08:32:21;;;;;;;17.63;9.20;;;13.00;99.90;;;;;;5016476;28;20225;-83
2022/10/26 08:34:47;;;;;;;14.73;8.67;;;13.20;99.90;;;;;;5006104;28;20682;-83
2022/10/26 08:37:14;;;;;;;17.20;9.40;;;13.00;99.90;;;;;;5019347;28;20287;-83
2022/10/26 08:39:41;;;;;;;11.43;8.70;;;13.30;99.90;;;;;;5019177;28;20320;-83
2022/10/26 08:42:18;;;;;;;16.27;8.80;;;13.40;99.90;;;;;;5022780;28;20701;-84
2022/10/26 08:44:57;;;;;;;14.50;8.10;;;13.30;99.90;;;;;;5004533;28;20194;-83
2022/10/26 08:47:36;;;;;;;19.63;9.50;;;13.40;99.90;;;;;;5016612;28;20202;-83
2022/10/26 08:50:41;;;;;;;17.10;7.83;;;13.60;99.90;;;;;;5023160;28;20237;-83
2022/10/26 08:53:49;;;;;;;16.13;8.87;;;13.60;99.90;;;;;;5019199;28;20571;-84
2022/10/26 08:56:20;;;;;;;15.57;8.17;;;13.70;99.90;;;;;;4995658;28;20233;-83
2022/10/26 08:58:53;;;;;;;15.50;7.73;;;13.80;99.90;;;;;;5021865;28;20299;-84
2022/10/26 09:01:20;;;;;;;13.73;7.53;;;14.60;99.90;;;;;;5019696;28;20639;-85
2022/10/26 09:03:47;;;;;;;12.17;7.77;;;14.00;99.90;;;;;;5015222;28;20214;-83
2022/10/26 09:06:37;;;;;;;15.07;7.57;;;14.10;99.90;;;;;;5008727;28;20309;-84
2022/10/26 09:09:22;;;;;;;9.00;6.37;;;14.20;99.90;;;;;;5022752;28;20766;-84
2022/10/26 09:12:05;;;;;;;13.83;6.47;;;14.20;99.90;;;;;;5002171;28;20230;-82
2022/10/26 09:15:10;;;;;;;14.80;6.47;;;14.30;99.90;;;;;;5023038;28;20212;-83
2022/10/26 09:17:37;;;;;;;14.10;6.70;;;14.50;99.90;;;;;;5020486;28;20252;-84
2022/10/26 09:20:56;;;;;;;14.43;5.93;;;14.60;99.90;;;;;;4999715;28;20226;-83
2022/10/26 09:23:48;;;;;;;12.43;5.50;;;14.80;99.90;;;;;;4998788;28;21094;-84
2022/10/26 09:26:43;;;;;;;10.00;5.20;;;14.90;99.90;;;;;;5000045;28;20206;-83
2022/10/26 09:29:13;;;;;;;14.70;5.20;;;;;;;;;;5016229;28;20199;-83
2022/10/26 09:31:44;;;;;;;8.90;5.20;;;15.10;99.90;;;;;;4998131;28;20313;-83
2022/10/26 09:34:26;;;;;;;15.60;5.03;;;15.70;99.90;;;;;;4997110;28;20281;-84
2022/10/26 09:36:57;;;;;;;6.53;3.83;;;15.80;99.90;;;;;;5004454;28;20211;-84
2022/10/26 09:39:50;;;;;;;10.82;3.60;;;15.50;99.90;;;;;;5001590;28;20705;-84
2022/10/26 09:42:28;;;;;;;7.90;2.75;;;15.60;99.90;;;;;;5000400;28;20211;-82
2022/10/26 09:45:00;;;;;;;7.35;3.10;;;15.90;99.90;;;;;;5006869;28;20266;-83
2022/10/26 09:47:40;;;;;;;6.28;2.95;;;16.00;99.90;;;;;;5004933;28;20207;-82
2022/10/26 09:50:27;;;;;;;6.60;3.67;;;16.00;99.90;;;;;;5001573;28;20226;-81
2022/10/26 09:52:54;;;;;;;8.07;2.65;;;16.20;99.90;;;;;;5026297;28;20214;-83
2022/10/26 09:55:21;;;;;;;7.70;3.42;;;16.10;99.90;;;;;;5022801;28;20241;-83
2022/10/26 09:57:53;;;;;;;4.70;2.30;;;16.40;99.90;;;;;;5004692;28;20215;-84
2022/10/26 10:00:24;;;;;;;5.80;2.63;;;16.60;99.90;;;;;;5004067;28;20254;-82
2022/10/26 10:02:57;;;;;;;4.25;2.58;;;16.80;99.90;;;;;;5001742;28;20216;-83
2022/10/26 10:05:28;;;;;;;5.30;2.60;;;17.00;99.90;;;;;;5005849;28;20227;-81
2022/10/26 10:08:21;;;;;;;6.30;2.60;;;17.00;99.90;;;;;;5008547;28;20355;-82
2022/10/26 10:10:54;;;;;;;7.38;3.30;;;;;;;;;;5004346;28;20259;-83
2022/10/26 10:13:24;;;;;;;6.85;2.97;;;17.30;99.90;;;;;;5006982;28;20295;-83
2022/10/26 10:16:01;;;;;;;6.35;3.13;;;17.30;99.90;;;;;;5021017;28;20262;-84
2022/10/26 10:18:28;;;;;;;8.18;2.90;;;17.60;99.90;;;;;;5014949;28;20341;-81
2022/10/26 10:20:57;;;;;;;4.47;2.60;;;17.70;99.90;;;;;;5008103;28;20230;-81
2022/10/26 10:23:45;;;;;;;6.57;3.00;;;17.80;99.90;;;;;;5023608;28;20256;-81
2022/10/26 10:26:12;;;;;;;7.10;2.63;;;17.90;99.90;;;;;;5031575;28;20252;-82
2022/10/26 10:28:41;;;;;;;4.75;2.63;;;17.90;99.90;;;;;;5030233;28;20664;-82
2022/10/26 10:31:27;;;;;;;5.50;2.50;;;18.20;99.90;;;;;;5023642;28;20238;-81
2022/10/26 10:33:54;;;;;;;11.00;2.70;;;18.20;99.90;;;;;;5010085;28;20308;-82
2022/10/26 10:36:28;;;;;;;4.15;2.42;;;18.20;99.90;;;;;;5027848;28;20241;-83
2022/10/26 10:39:12;;;;;;;4.60;2.67;;;18.20;99.90;;;;;;5009879;28;20295;-83
2022/10/26 10:41:44;;;;;;;7.85;2.72;;;18.20;99.90;;;;;;5023394;28;20213;-83
2022/10/26 10:44:30;;;;;;;5.72;2.70;;;18.20;99.90;;;;;;5009416;28;20748;-83
2022/10/26 10:47:04;;;;;;;5.97;2.72;;;18.40;99.90;;;;;;5006742;28;20208;-82
2022/10/26 10:49:32;;;;;;;7.15;2.97;;;18.00;99.90;;;;;;5021366;28;20260;-82
2022/10/26 10:51:59;;;;;;;5.18;2.92;;;18.50;99.90;;;;;;5006699;28;20236;-81
2022/10/26 10:54:31;;;;;;;7.75;2.92;;;19.00;99.90;;;;;;5020348;28;20289;-82
2022/10/26 10:57:23;;;;;;;10.05;3.92;;;18.60;99.90;;;;;;5021708;28;20289;-83
2022/10/26 11:00:03;;;;;;;6.85;3.08;;;18.80;99.90;;;;;;5020976;28;20220;-81
2022/10/26 11:02:36;;;;;;;5.82;2.92;;;18.70;99.90;;;;;;5020864;28;20286;-81
2022/10/26 11:05:25;;;;;;;7.43;3.42;;;18.80;99.90;;;;;;5007146;28;20222;-81
2022/10/26 11:08:17;;;;;;;6.00;3.15;;;18.80;99.90;;;;;;5020769;28;20251;-83
2022/10/26 11:11:06;;;;;;;5.68;3.35;;;18.80;99.90;;;;;;5021366;28;20697;-80
2022/10/26 11:13:59;;;;;;;11.15;3.45;;;19.00;99.90;;;;;;5008942;28;20225;-81
2022/10/26 11:16:36;;;;;;;7.53;3.38;;;19.00;99.90;;;;;;5020703;28;20203;-83
2022/10/26 11:19:27;;;;;;;8.80;3.58;;;19.20;99.90;;;;;;5023839;28;20228;-84
2022/10/26 11:21:56;;;;;;;8.35;3.65;;;19.10;99.90;;;;;;5024414;28;20268;-82
2022/10/26 11:24:28;;;;;;;6.18;3.20;;;19.20;99.90;;;;;;5025122;28;20197;-83
2022/10/26 11:27:13;;;;;;;9.88;3.60;;;19.30;99.90;;;;;;5024200;28;20648;-85
2022/10/26 11:30:02;;;;;;;5.03;3.42;;;19.30;99.90;;;;;;5028276;28;20577;-87
2022/10/26 11:32:38;;;;;;;9.60;3.33;;;19.20;99.90;;;;;;5024894;28;20218;-85
2022/10/26 11:35:27;;;;;;;7.13;3.65;;;19.20;99.90;;;;;;5022913;28;20617;-82
2022/10/26 11:38:08;;;;;;;11.38;4.22;;;19.20;99.90;;;;;;5018898;28;20208;-83
2022/10/26 11:40:51;;;;;;;6.50;3.35;;;19.30;99.90;;;;;;5022262;28;20298;-83
2022/10/26 11:43:36;;;;;;;10.20;3.65;;;19.20;99.90;;;;;;5017659;28;20575;-85
2022/10/26 11:46:16;;;;;;;5.97;3.10;;;19.60;99.90;;;;;;5022563;28;20201;-84
2022/10/26 11:48:54;;;;;;;8.45;3.05;;;19.80;99.90;;;;;;5020658;28;20281;-84
2022/10/26 11:51:40;;;;;;;10.80;3.70;;;19.60;99.90;;;;;;5022355;28;20600;-81
2022/10/26 11:54:22;;;;;;;5.45;3.60;;;19.70;99.90;;;;;;5027063;28;20202;-79
2022/10/26 11:56:53;;;;;;;6.45;3.38;;;19.70;99.90;;;;;;5022769;28;20261;-83
2022/10/26 11:59:27;;;;;;;7.55;4.22;;;19.80;99.90;;;;;;5015524;28;20287;-81
2022/10/26 12:02:23;;;;;;;8.23;3.65;;;19.90;99.90;;;;;;5009506;28;20206;-81
2022/10/26 12:04:58;;;;;;;4.72;3.17;;;19.80;99.90;;;;;;5025870;28;20522;-81
2022/10/26 12:07:31;;;;;;;7.35;3.55;;;19.90;99.90;;;;;;5028252;28;20218;-81
2022/10/26 12:10:01;;;;;;;8.75;4.00;;;19.80;99.90;;;;;;5010507;28;20216;-81
2022/10/26 12:12:49;;;;;;;10.27;3.70;;;19.90;99.90;;;;;;5028316;28;20225;-80
2022/10/26 12:15:43;;;;;;;7.93;3.72;;;20.00;99.90;;;;;;5026157;28;20442;-80
2022/10/26 12:18:44;;;;;;;6.57;3.50;;;19.80;99.90;;;;;;5008533;28;20312;-83
2022/10/26 12:21:30;;;;;;;9.98;3.88;;;20.00;99.90;;;;;;5004530;28;20753;-83
2022/10/26 12:24:22;;;;;;;8.95;4.32;;;19.70;99.90;;;;;;4995700;28;20265;-82
2022/10/26 12:27:03;;;;;;;9.95;4.43;;;19.90;99.90;;;;;;4994812;28;20290;-83
2022/10/26 12:29:48;;;;;;;7.07;3.58;;;19.80;99.90;;;;;;5003437;28;20203;-81
2022/10/26 12:32:29;;;;;;;6.10;3.90;;;19.90;99.90;;;;;;5005960;28;20237;-84
2022/10/26 12:34:59;;;;;;;6.18;3.53;;;20.00;99.90;;;;;;5004407;28;20218;-85
2022/10/26 12:37:36;;;;;;;7.88;3.78;;;20.00;99.90;;;;;;5016734;28;20234;-81
2022/10/26 12:40:39;;;;;;;6.55;4.55;;;20.10;99.90;;;;;;5004277;28;20540;-83
2022/10/26 12:43:15;;;;;;;4.78;3.92;;;19.90;99.90;;;;;;5003257;28;20207;-81
2022/10/26 12:46:12;;;;;;;6.90;3.80;;;19.70;99.90;;;;;;5005799;28;20291;-82
2022/10/26 12:48:38;;;;;;;6.90;4.03;;;19.80;99.90;;;;;;5002662;28;20199;-82
2022/10/26 12:51:20;;;;;;;7.15;4.88;;;19.70;99.90;;;;;;5000585;28;20699;-83
2022/10/26 12:53:56;;;;;;;8.63;4.07;;;19.80;99.90;;;;;;5007256;28;20198;-84
2022/10/26 12:56:31;;;;;;;9.43;4.57;;;19.80;99.90;;;;;;5004415;28;20202;-84
2022/10/26 12:59:21;;;;;;;10.43;5.20;;;;;;;;;;5000454;28;20725;-79
2022/10/26 13:02:09;;;;;;;9.57;4.78;;;19.70;99.90;;;;;;4998290;28;20286;-83
2022/10/26 13:04:44;;;;;;;6.75;4.43;;;19.90;99.90;;;;;;5003459;28;20238;-84
2022/10/26 13:07:26;;;;;;;8.15;4.60;;;19.90;99.90;;;;;;5014322;28;20209;-83
2022/10/26 13:09:59;;;;;;;8.10;5.22;;;19.90;99.90;;;;;;5001186;28;20202;-83